Smyrna, TN (MQY)

CessnaPCRedbird FMX


Wings of Eagles Aviation started in Smyrna (MQY) in 1998 as a small flight school. The Smyrna Airport is the third largest airport in the state of Tennessee and the busiest general aviation airport. With its longest runway being just over 8,000 feet and having its own air traffic control tower, this is the best possible training environment for all pilots. Once you learn how to fly here, you will be confident no matter where your aviation adventures take you.

Address:
276 Doug Warpoole Rd.
Smyrna, TN 37167

Phone: (615) 355-0033

Business Hours:
Monday-Sunday 7a-10p


NOAA Weather – KMQY

Smyrna, TN

Last Updated on Oct 22 2014, 7:56 pm CDT

Current Conditions: Fair

NOAA Icon

Temp: 52°F

Wind: North at 6mph

Humidity: 72%

Windchill: 50°F

Your 5-Day Forecast at a Glance

Available data for KMQY from the past hour

METAR
KMQY 230156Z 02006KT 10SM CLR 11/06 A3022 RMK AO2 T01050061 SLP244